createdAt,value
2022-10-22T00:04:35.533Z,24.40
2022-10-22T00:14:49.433Z,24.60
2022-10-22T00:25:02.450Z,22.40
2022-10-22T00:35:15.438Z,26.90
2022-10-22T00:45:32.470Z,27.50
2022-10-22T00:55:52.457Z,27.30
2022-10-22T01:06:07.492Z,25.90
2022-10-22T01:16:27.457Z,23.10
2022-10-22T01:27:08.524Z,24.00
2022-10-22T01:37:22.493Z,24.90
2022-10-22T01:47:46.519Z,22.40
2022-10-22T01:58:18.506Z,24.40
2022-10-22T02:08:37.525Z,23.40
2022-10-22T02:18:53.509Z,22.20
2022-10-22T02:29:14.535Z,22.50
2022-10-22T02:39:27.527Z,22.10
2022-10-22T02:49:40.567Z,24.30
2022-10-22T02:59:53.534Z,24.70
2022-10-22T03:10:06.566Z,21.20
2022-10-22T03:20:19.546Z,22.50
2022-10-22T03:30:32.594Z,20.30
2022-10-22T03:40:45.582Z,24.00
2022-10-22T03:50:58.598Z,26.60
2022-10-22T04:01:19.646Z,29.40
2022-10-22T04:11:32.595Z,28.40
2022-10-22T04:21:45.600Z,22.60
2022-10-22T04:31:58.621Z,24.20
2022-10-22T04:42:11.613Z,21.00
2022-10-22T04:52:24.629Z,26.70
2022-10-22T05:02:37.618Z,24.20
2022-10-22T05:12:50.651Z,23.10
2022-10-22T05:23:03.625Z,24.60
2022-10-22T05:33:18.760Z,27.70
2022-10-22T05:43:34.643Z,31.70
2022-10-22T05:53:49.691Z,30.10
2022-10-22T06:04:07.656Z,26.60
2022-10-22T06:14:20.691Z,29.30
2022-10-22T06:24:33.702Z,30.10
2022-10-22T06:34:46.711Z,31.20
2022-10-22T06:44:59.694Z,33.90
2022-10-22T06:55:18.710Z,26.30
2022-10-22T07:05:31.710Z,30.00
2022-10-22T07:15:44.716Z,37.30
2022-10-22T07:25:57.730Z,35.10
2022-10-22T07:36:12.763Z,33.40
2022-10-22T07:46:32.739Z,32.10
2022-10-22T07:56:45.777Z,30.30
2022-10-22T08:06:58.747Z,29.00
2022-10-22T08:17:11.778Z,28.00
2022-10-22T08:27:24.783Z,31.30
2022-10-22T08:37:37.987Z,32.40
2022-10-22T08:48:08.829Z,31.20
2022-10-22T08:58:36.785Z,30.80
2022-10-22T09:08:51.846Z,28.30
2022-10-22T09:19:07.794Z,32.60
2022-10-22T09:29:25.813Z,32.80
2022-10-22T09:39:42.837Z,27.70
2022-10-22T09:49:55.810Z,31.80
2022-10-22T10:00:08.843Z,26.40
2022-10-22T10:10:28.842Z,28.40
2022-10-22T10:21:02.919Z,28.60
2022-10-22T10:31:19.863Z,30.80
2022-10-22T10:41:40.858Z,28.70
2022-10-22T10:52:00.874Z,31.70
2022-10-22T11:02:38.871Z,27.70
2022-10-22T11:12:53.910Z,29.10
2022-10-22T11:23:19.863Z,26.60
2022-10-22T11:33:37.921Z,30.80
2022-10-22T11:44:02.914Z,32.90
2022-10-22T11:54:49.927Z,29.40
2022-10-22T12:05:03.939Z,35.70
2022-10-22T12:15:31.953Z,35.40
2022-10-22T12:25:45.937Z,32.80
2022-10-22T12:36:01.946Z,47.80
2022-10-22T12:46:20.953Z,38.60
2022-10-22T12:56:36.949Z,36.00
2022-10-22T13:06:54.959Z,40.20
2022-10-22T13:17:11.977Z,32.60
2022-10-22T13:27:24.995Z,31.40
2022-10-22T13:37:45.974Z,30.20
2022-10-22T13:48:01.020Z,37.20
2022-10-22T13:58:22.020Z,38.70
2022-10-22T14:08:36.063Z,41.00
2022-10-22T14:18:49.037Z,43.20
2022-10-22T14:29:09.235Z,40.90
2022-10-22T14:39:22.044Z,44.30
2022-10-22T14:49:35.071Z,45.00
2022-10-22T14:59:55.057Z,44.80
2022-10-22T15:10:08.115Z,47.60
2022-10-22T15:20:21.173Z,45.20
2022-10-22T15:30:34.120Z,49.00
2022-10-22T15:40:48.173Z,47.00
2022-10-22T15:51:01.171Z,44.10
2022-10-22T16:01:21.255Z,48.30
2022-10-22T16:11:35.207Z,50.40
2022-10-22T16:21:48.220Z,50.50
2022-10-22T16:32:01.222Z,44.50
2022-10-22T16:42:14.245Z,47.20
2022-10-22T16:52:27.232Z,75.40
2022-10-22T17:02:40.516Z,49.70
2022-10-22T17:12:54.246Z,44.00
2022-10-22T17:23:07.290Z,42.50
2022-10-22T17:33:20.226Z,40.30
2022-10-22T17:43:33.181Z,40.60
2022-10-22T17:53:50.198Z,39.00
2022-10-22T18:04:06.173Z,42.00
2022-10-22T18:14:19.194Z,45.40
2022-10-22T18:24:32.210Z,45.10
2022-10-22T18:34:45.196Z,47.90
2022-10-22T18:44:58.200Z,43.40
2022-10-22T18:55:12.197Z,42.90
2022-10-22T19:05:25.227Z,46.10
2022-10-22T19:15:38.224Z,44.80
2022-10-22T19:25:51.253Z,49.30
2022-10-22T19:36:04.344Z,63.40
2022-10-22T19:46:17.269Z,56.90
2022-10-22T19:56:30.244Z,58.70
2022-10-22T20:06:43.259Z,51.60
2022-10-22T20:16:56.241Z,54.60
2022-10-22T20:27:09.310Z,60.50
2022-10-22T20:37:22.282Z,52.00
2022-10-22T20:47:51.196Z,50.00
2022-10-22T20:58:11.299Z,49.90
2022-10-22T21:08:25.296Z,51.30
2022-10-22T21:18:38.298Z,56.60
2022-10-22T21:28:51.346Z,49.70
2022-10-22T21:39:04.324Z,51.40
2022-10-22T21:49:17.339Z,51.50
2022-10-22T21:59:39.349Z,51.20
2022-10-22T22:09:52.334Z,52.10
2022-10-22T22:20:05.349Z,52.90
2022-10-22T22:30:18.350Z,53.00
2022-10-22T22:40:33.760Z,59.50
2022-10-22T22:50:46.358Z,55.70
2022-10-22T23:01:04.423Z,47.85
2022-10-22T23:11:20.370Z,48.50
2022-10-22T23:21:35.401Z,47.60
2022-10-22T23:31:48.382Z,48.30
2022-10-22T23:42:01.426Z,47.50
2022-10-22T23:52:14.414Z,47.10
